THY12D LTCD-LTAC
Flight info
| Callsign | THY12D |
|---|---|
| Flight time | N/A |
| Altitude | 32000 |
| Route | EZN UL615 SIV UT54 JUPNE UL614 GOBIT |
| Aircraft | A320/M-SDE3FGHIRWY/LB1 |
Departure
| Time | 2026-04-26 10:55 |
|---|---|
| Airport | Erzincan Airport (LTCD) |
Arrival
| Time | N/A |
|---|---|
| Airport | Esenboğa International Airport (LTAC) |
| Time | Latitude | Longitude | Altitude | Speed | Heading |
|---|---|---|---|---|---|
| 2026-04-26 10:27 | 39.71628 | 39.52220 | 3790 ft | 0 kts | 21° |
| 2026-04-26 10:40 | 39.71624 | 39.52218 | 3790 ft | 2 kts | 21° |
| 2026-04-26 10:41 | 39.71609 | 39.52211 | 3792 ft | 2 kts | 21° |
| 2026-04-26 10:41 | 39.71594 | 39.52203 | 3793 ft | 2 kts | 21° |
| 2026-04-26 10:41 | 39.71578 | 39.52195 | 3793 ft | 2 kts | 22° |
| 2026-04-26 10:41 | 39.71563 | 39.52188 | 3793 ft | 2 kts | 357° |
| 2026-04-26 10:42 | 39.71549 | 39.52197 | 3794 ft | 2 kts | 300° |
| 2026-04-26 10:42 | 39.71543 | 39.52216 | 3793 ft | 2 kts | 289° |
| 2026-04-26 10:42 | 39.71541 | 39.52223 | 3793 ft | 0 kts | 288° |
| 2026-04-26 10:42 | 39.71541 | 39.52222 | 3793 ft | 0 kts | 289° |
| 2026-04-26 10:49 | 39.71544 | 39.52210 | 3793 ft | 4 kts | 288° |
| 2026-04-26 10:49 | 39.71557 | 39.52151 | 3794 ft | 9 kts | 269° |
| 2026-04-26 10:50 | 39.71498 | 39.52094 | 3794 ft | 13 kts | 213° |
| 2026-04-26 10:50 | 39.71481 | 39.52017 | 3793 ft | 16 kts | 285° |
| 2026-04-26 10:50 | 39.71541 | 39.51805 | 3794 ft | 22 kts | 292° |
| 2026-04-26 10:50 | 39.71601 | 39.51599 | 3793 ft | 25 kts | 289° |
| 2026-04-26 10:51 | 39.71665 | 39.51387 | 3793 ft | 26 kts | 292° |
| 2026-04-26 10:51 | 39.71706 | 39.51157 | 3794 ft | 13 kts | 238° |
| 2026-04-26 10:51 | 39.71656 | 39.51119 | 3792 ft | 0 kts | 197° |
| 2026-04-26 10:52 | 39.71652 | 39.51117 | 3792 ft | 3 kts | 197° |
| 2026-04-26 10:52 | 39.71587 | 39.51098 | 3793 ft | 12 kts | 175° |
| 2026-04-26 10:52 | 39.71559 | 39.51144 | 3793 ft | 0 kts | 108° |
| 2026-04-26 10:53 | 39.71559 | 39.51145 | 3793 ft | 0 kts | 108° |
| 2026-04-26 10:53 | 39.71559 | 39.51146 | 3793 ft | 0 kts | 108° |
| 2026-04-26 10:54 | 39.71551 | 39.51174 | 3793 ft | 18 kts | 109° |
| 2026-04-26 10:54 | 39.71424 | 39.51610 | 3792 ft | 83 kts | 112° |
| 2026-04-26 10:54 | 39.71156 | 39.52534 | 3795 ft | 134 kts | 110° |
| 2026-04-26 10:54 | 39.70783 | 39.53825 | 3907 ft | 164 kts | 111° |
| 2026-04-26 10:55 | 39.70356 | 39.55280 | 4248 ft | 182 kts | 112° |
| 2026-04-26 10:55 | 39.69866 | 39.56883 | 4626 ft | 201 kts | 111° |
| 2026-04-26 10:55 | 39.69378 | 39.58643 | 5044 ft | 216 kts | 109° |
| 2026-04-26 10:55 | 39.69043 | 39.59922 | 5329 ft | 227 kts | 109° |
| 2026-04-26 10:56 | 39.68395 | 39.62529 | 6176 ft | 229 kts | 107° |
| 2026-04-26 10:56 | 39.68067 | 39.63873 | 6608 ft | 232 kts | 107° |
| 2026-04-26 10:56 | 39.67572 | 39.65877 | 7249 ft | 234 kts | 108° |
| 2026-04-26 10:56 | 39.67068 | 39.67882 | 7973 ft | 235 kts | 109° |
| 2026-04-26 10:57 | 39.66552 | 39.69904 | 8689 ft | 237 kts | 110° |
| 2026-04-26 10:57 | 39.65946 | 39.71860 | 9465 ft | 237 kts | 126° |
| 2026-04-26 10:57 | 39.64788 | 39.73365 | 10275 ft | 234 kts | 152° |
| 2026-04-26 10:57 | 39.63292 | 39.74034 | 10873 ft | 234 kts | 178° |
| 2026-04-26 10:58 | 39.61688 | 39.73766 | 11537 ft | 234 kts | 205° |
| 2026-04-26 10:58 | 39.60335 | 39.72623 | 12193 ft | 234 kts | 229° |
| 2026-04-26 10:58 | 39.59505 | 39.70817 | 12864 ft | 236 kts | 254° |
| 2026-04-26 10:58 | 39.59365 | 39.68710 | 13552 ft | 238 kts | 279° |
| 2026-04-26 10:59 | 39.59965 | 39.66714 | 14193 ft | 242 kts | 304° |
| 2026-04-26 10:59 | 39.61128 | 39.65119 | 14735 ft | 246 kts | 313° |
| 2026-04-26 10:59 | 39.62374 | 39.63569 | 15244 ft | 250 kts | 313° |
| 2026-04-26 10:59 | 39.63627 | 39.62004 | 15797 ft | 251 kts | 313° |
| 2026-04-26 11:00 | 39.64888 | 39.60415 | 16380 ft | 253 kts | 312° |
| 2026-04-26 11:00 | 39.66152 | 39.58817 | 16974 ft | 254 kts | 312° |
| 2026-04-26 11:00 | 39.67422 | 39.57208 | 17577 ft | 256 kts | 312° |
| 2026-04-26 11:00 | 39.68696 | 39.55592 | 18189 ft | 258 kts | 312° |
| 2026-04-26 11:01 | 39.69985 | 39.53957 | 18798 ft | 260 kts | 311° |
| 2026-04-26 11:01 | 39.71095 | 39.52133 | 19379 ft | 258 kts | 296° |
| 2026-04-26 11:01 | 39.71872 | 39.49983 | 19730 ft | 269 kts | 289° |
| 2026-04-26 11:01 | 39.72593 | 39.47693 | 20180 ft | 278 kts | 291° |
| 2026-04-26 11:02 | 39.73420 | 39.45474 | 21028 ft | 273 kts | 296° |
| 2026-04-26 11:02 | 39.74419 | 39.43436 | 22023 ft | 265 kts | 303° |
| 2026-04-26 11:02 | 39.75654 | 39.41635 | 22686 ft | 272 kts | 312° |
| 2026-04-26 11:02 | 39.77196 | 39.40066 | 22921 ft | 294 kts | 323° |
| 2026-04-26 11:03 | 39.79091 | 39.38807 | 22886 ft | 317 kts | 328° |
| 2026-04-26 11:03 | 39.80686 | 39.36896 | 23080 ft | 308 kts | 295° |
| 2026-04-26 11:03 | 39.81227 | 39.34356 | 23984 ft | 287 kts | 274° |
| 2026-04-26 11:03 | 39.81513 | 39.31741 | 24186 ft | 301 kts | 283° |
| 2026-04-26 11:04 | 39.82203 | 39.29101 | 24323 ft | 315 kts | 289° |
| 2026-04-26 11:04 | 39.83089 | 39.26427 | 24444 ft | 328 kts | 291° |
| 2026-04-26 11:04 | 39.84030 | 39.23667 | 24561 ft | 340 kts | 291° |
| 2026-04-26 11:04 | 39.84966 | 39.20779 | 24674 ft | 351 kts | 289° |
| 2026-04-26 11:05 | 39.85871 | 39.17776 | 24795 ft | 363 kts | 288° |
| 2026-04-26 11:05 | 39.86756 | 39.14655 | 24914 ft | 374 kts | 287° |
| 2026-04-26 11:05 | 39.87636 | 39.11424 | 25122 ft | 381 kts | 287° |
| 2026-04-26 11:05 | 39.88510 | 39.08147 | 25484 ft | 384 kts | 287° |
| 2026-04-26 11:06 | 39.89385 | 39.04847 | 25876 ft | 386 kts | 287° |
| 2026-04-26 11:06 | 39.90268 | 39.01526 | 26279 ft | 388 kts | 287° |
| 2026-04-26 11:06 | 39.91139 | 38.98263 | 26651 ft | 390 kts | 287° |
| 2026-04-26 11:06 | 39.92041 | 38.94896 | 27026 ft | 393 kts | 287° |
| 2026-04-26 11:07 | 39.92931 | 38.91474 | 27385 ft | 393 kts | 283° |
| 2026-04-26 11:07 | 39.93440 | 38.87980 | 27747 ft | 393 kts | 273° |
| 2026-04-26 11:07 | 39.93462 | 38.84432 | 28105 ft | 393 kts | 264° |
| 2026-04-26 11:07 | 39.93025 | 38.80959 | 28471 ft | 394 kts | 255° |
| 2026-04-26 11:08 | 39.92148 | 38.77567 | 28855 ft | 396 kts | 247° |
| 2026-04-26 11:08 | 39.90874 | 38.74387 | 29266 ft | 397 kts | 239° |
| 2026-04-26 11:08 | 39.89230 | 38.71479 | 29649 ft | 400 kts | 231° |
| 2026-04-26 11:08 | 39.87255 | 38.68903 | 30004 ft | 405 kts | 223° |
| 2026-04-26 11:09 | 39.84985 | 38.66685 | 30271 ft | 411 kts | 216° |
| 2026-04-26 11:09 | 39.82474 | 38.64859 | 30511 ft | 417 kts | 208° |
| 2026-04-26 11:09 | 39.79754 | 38.63454 | 30768 ft | 424 kts | 201° |
| 2026-04-26 11:09 | 39.76879 | 38.62499 | 31043 ft | 430 kts | 194° |
| 2026-04-26 11:10 | 39.73891 | 38.62018 | 31332 ft | 436 kts | 187° |
| 2026-04-26 11:10 | 39.70835 | 38.62039 | 31612 ft | 443 kts | 180° |
| 2026-04-26 11:10 | 39.67887 | 38.62550 | 31850 ft | 449 kts | 173° |
| 2026-04-26 11:10 | 39.64845 | 38.63586 | 32082 ft | 456 kts | 166° |
| 2026-04-26 11:11 | 39.61875 | 38.65126 | 32293 ft | 464 kts | 159° |
| 2026-04-26 11:11 | 39.59028 | 38.67158 | 32505 ft | 470 kts | 152° |
| 2026-04-26 11:11 | 39.56358 | 38.69666 | 32711 ft | 477 kts | 144° |
| 2026-04-26 11:11 | 39.53918 | 38.72615 | 32917 ft | 483 kts | 137° |